sensor_id;sensor_type;location;lat;lon;timestamp;pressure;altitude;pressure_sealevel;temperature;humidity
77725;BME280;66892;53.236;6.550;2024-03-08T00:02:05;102319.94;;;1.59;100.00
77725;BME280;66892;53.236;6.550;2024-03-08T00:04:31;102312.13;;;1.59;100.00
77725;BME280;66892;53.236;6.550;2024-03-08T00:06:57;102309.97;;;1.52;100.00
77725;BME280;66892;53.236;6.550;2024-03-08T00:09:23;102312.50;;;1.50;100.00
77725;BME280;66892;53.236;6.550;2024-03-08T00:11:49;102302.88;;;1.49;100.00
77725;BME280;66892;53.236;6.550;2024-03-08T00:14:16;102301.19;;;1.50;100.00
77725;BME280;66892;53.236;6.550;2024-03-08T00:16:42;102297.03;;;1.53;100.00
77725;BME280;66892;53.236;6.550;2024-03-08T00:19:10;102298.75;;;1.53;100.00
77725;BME280;66892;53.236;6.550;2024-03-08T00:21:37;102306.22;;;1.47;100.00
77725;BME280;66892;53.236;6.550;2024-03-08T00:24:03;102303.16;;;1.39;100.00
77725;BME280;66892;53.236;6.550;2024-03-08T00:26:29;102305.78;;;1.39;100.00
77725;BME280;66892;53.236;6.550;2024-03-08T00:28:55;102294.44;;;1.39;100.00
77725;BME280;66892;53.236;6.550;2024-03-08T00:31:21;102291.78;;;1.37;100.00
77725;BME280;66892;53.236;6.550;2024-03-08T00:33:47;102300.03;;;1.30;100.00
77725;BME280;66892;53.236;6.550;2024-03-08T00:36:15;102300.31;;;1.35;100.00
77725;BME280;66892;53.236;6.550;2024-03-08T00:38:41;102303.78;;;1.35;100.00
77725;BME280;66892;53.236;6.550;2024-03-08T00:41:07;102294.72;;;1.29;100.00
77725;BME280;66892;53.236;6.550;2024-03-08T00:43:33;102296.47;;;1.28;100.00
77725;BME280;66892;53.236;6.550;2024-03-08T00:46:00;102296.47;;;1.28;100.00
77725;BME280;66892;53.236;6.550;2024-03-08T00:48:27;102296.47;;;1.28;100.00
77725;BME280;66892;53.236;6.550;2024-03-08T00:50:53;102292.78;;;1.25;100.00
77725;BME280;66892;53.236;6.550;2024-03-08T00:53:21;102297.44;;;1.30;100.00
77725;BME280;66892;53.236;6.550;2024-03-08T00:55:47;102287.34;;;1.36;100.00
77725;BME280;66892;53.236;6.550;2024-03-08T00:58:13;102285.38;;;1.32;100.00
77725;BME280;66892;53.236;6.550;2024-03-08T01:00:39;102282.78;;;1.32;100.00
77725;BME280;66892;53.236;6.550;2024-03-08T01:03:05;102279.53;;;1.36;100.00
77725;BME280;66892;53.236;6.550;2024-03-08T01:05:31;102288.88;;;1.33;100.00
77725;BME280;66892;53.236;6.550;2024-03-08T01:07:57;102269.13;;;1.36;100.00
77725;BME280;66892;53.236;6.550;2024-03-08T01:10:24;102263.56;;;1.30;100.00
77725;BME280;66892;53.236;6.550;2024-03-08T01:12:50;102264.91;;;1.24;100.00
77725;BME280;66892;53.236;6.550;2024-03-08T01:15:16;102271.03;;;1.24;100.00
77725;BME280;66892;53.236;6.550;2024-03-08T01:17:42;102258.00;;;1.24;100.00
77725;BME280;66892;53.236;6.550;2024-03-08T01:20:10;102255.75;;;1.16;100.00
77725;BME280;66892;53.236;6.550;2024-03-08T01:22:40;102258.13;;;1.11;100.00
77725;BME280;66892;53.236;6.550;2024-03-08T01:25:07;102254.78;;;1.14;100.00
77725;BME280;66892;53.236;6.550;2024-03-08T01:27:35;102251.28;;;1.13;100.00
77725;BME280;66892;53.236;6.550;2024-03-08T01:30:03;102241.94;;;1.17;100.00
77725;BME280;66892;53.236;6.550;2024-03-08T01:32:29;102228.09;;;1.18;100.00
77725;BME280;66892;53.236;6.550;2024-03-08T01:34:55;102230.38;;;1.12;100.00
77725;BME280;66892;53.236;6.550;2024-03-08T01:37:21;102225.88;;;1.09;100.00
77725;BME280;66892;53.236;6.550;2024-03-08T01:39:47;102221.19;;;1.03;100.00
77725;BME280;66892;53.236;6.550;2024-03-08T01:42:13;102217.63;;;1.01;100.00
77725;BME280;66892;53.236;6.550;2024-03-08T01:44:42;102207.66;;;0.94;100.00
77725;BME280;66892;53.236;6.550;2024-03-08T01:47:10;102217.84;;;0.90;100.00
77725;BME280;66892;53.236;6.550;2024-03-08T01:49:37;102212.44;;;0.87;100.00
77725;BME280;66892;53.236;6.550;2024-03-08T01:52:03;102211.56;;;0.86;100.00
77725;BME280;66892;53.236;6.550;2024-03-08T01:54:30;102202.75;;;0.84;100.00
77725;BME280;66892;53.236;6.550;2024-03-08T01:56:56;102203.56;;;0.83;100.00
77725;BME280;66892;53.236;6.550;2024-03-08T01:59:24;102196.28;;;0.78;100.00
77725;BME280;66892;53.236;6.550;2024-03-08T02:01:55;102200.41;;;0.74;100.00
77725;BME280;66892;53.236;6.550;2024-03-08T02:04:21;102198.28;;;0.67;100.00
77725;BME280;66892;53.236;6.550;2024-03-08T02:06:47;102202.66;;;0.68;100.00
77725;BME280;66892;53.236;6.550;2024-03-08T02:09:14;102190.47;;;0.67;100.00
77725;BME280;66892;53.236;6.550;2024-03-08T02:11:40;102190.56;;;0.69;100.00
77725;BME280;66892;53.236;6.550;2024-03-08T02:14:06;102194.84;;;0.68;100.00
77725;BME280;66892;53.236;6.550;2024-03-08T02:16:32;102185.34;;;0.69;100.00
77725;BME280;66892;53.236;6.550;2024-03-08T02:19:00;102187.16;;;0.70;100.00
77725;BME280;66892;53.236;6.550;2024-03-08T02:21:28;102185.97;;;0.65;100.00
77725;BME280;66892;53.236;6.550;2024-03-08T02:23:55;102184.56;;;0.70;100.00
77725;BME280;66892;53.236;6.550;2024-03-08T02:26:21;102183.19;;;0.62;100.00
77725;BME280;66892;53.236;6.550;2024-03-08T02:28:48;102182.41;;;0.63;100.00
77725;BME280;66892;53.236;6.550;2024-03-08T02:31:15;102175.31;;;0.60;100.00
77725;BME280;66892;53.236;6.550;2024-03-08T02:33:41;102171.09;;;0.62;100.00
77725;BME280;66892;53.236;6.550;2024-03-08T02:36:07;102172.59;;;0.59;100.00
77725;BME280;66892;53.236;6.550;2024-03-08T02:38:34;102175.66;;;0.51;100.00
77725;BME280;66892;53.236;6.550;2024-03-08T02:41:00;102176.66;;;0.53;100.00
77725;BME280;66892;53.236;6.550;2024-03-08T02:43:26;102177.63;;;0.56;100.00
77725;BME280;66892;53.236;6.550;2024-03-08T02:45:53;102175.66;;;0.51;100.00
77725;BME280;66892;53.236;6.550;2024-03-08T02:48:20;102172.19;;;0.51;100.00
77725;BME280;66892;53.236;6.550;2024-03-08T02:50:47;102171.47;;;0.53;100.00
77725;BME280;66892;53.236;6.550;2024-03-08T02:53:14;102161.84;;;0.52;100.00
77725;BME280;66892;53.236;6.550;2024-03-08T02:55:41;102165.06;;;0.48;100.00
77725;BME280;66892;53.236;6.550;2024-03-08T02:58:08;102163.13;;;0.44;100.00
77725;BME280;66892;53.236;6.550;2024-03-08T03:00:36;102148.47;;;0.46;100.00
77725;BME280;66892;53.236;6.550;2024-03-08T03:03:02;102153.88;;;0.49;100.00
77725;BME280;66892;53.236;6.550;2024-03-08T03:05:29;102153.88;;;0.49;100.00
77725;BME280;66892;53.236;6.550;2024-03-08T03:07:56;102149.72;;;0.53;100.00
77725;BME280;66892;53.236;6.550;2024-03-08T03:10:22;102148.84;;;0.52;100.00
77725;BME280;66892;53.236;6.550;2024-03-08T03:12:49;102151.09;;;0.46;100.00
77725;BME280;66892;53.236;6.550;2024-03-08T03:15:16;102148.31;;;0.43;100.00
77725;BME280;66892;53.236;6.550;2024-03-08T03:17:46;102147.50;;;0.44;100.00
77725;BME280;66892;53.236;6.550;2024-03-08T03:20:12;102150.00;;;0.43;100.00
77725;BME280;66892;53.236;6.550;2024-03-08T03:22:40;102146.97;;;0.50;100.00
77725;BME280;66892;53.236;6.550;2024-03-08T03:25:07;102149.28;;;0.45;100.00
77725;BME280;66892;53.236;6.550;2024-03-08T03:27:33;102148.94;;;0.39;100.00
77725;BME280;66892;53.236;6.550;2024-03-08T03:30:01;102142.41;;;0.31;100.00
77725;BME280;66892;53.236;6.550;2024-03-08T03:32:46;102141.69;;;0.34;100.00
77725;BME280;66892;53.236;6.550;2024-03-08T03:35:13;102145.53;;;0.40;100.00
77725;BME280;66892;53.236;6.550;2024-03-08T03:37:39;102142.13;;;0.41;100.00
77725;BME280;66892;53.236;6.550;2024-03-08T03:40:06;102135.03;;;0.39;100.00
77725;BME280;66892;53.236;6.550;2024-03-08T03:42:34;102140.41;;;0.42;100.00
77725;BME280;66892;53.236;6.550;2024-03-08T03:45:01;102132.34;;;0.37;100.00
77725;BME280;66892;53.236;6.550;2024-03-08T03:47:28;102126.78;;;0.31;100.00
77725;BME280;66892;53.236;6.550;2024-03-08T03:49:54;102130.13;;;0.29;100.00
77725;BME280;66892;53.236;6.550;2024-03-08T03:52:21;102127.31;;;0.26;100.00
77725;BME280;66892;53.236;6.550;2024-03-08T03:54:47;102126.69;;;0.30;100.00
77725;BME280;66892;53.236;6.550;2024-03-08T03:57:13;102127.50;;;0.29;100.00
77725;BME280;66892;53.236;6.550;2024-03-08T03:59:40;102117.81;;;0.26;100.00
77725;BME280;66892;53.236;6.550;2024-03-08T04:02:08;102120.34;;;0.25;100.00
77725;BME280;66892;53.236;6.550;2024-03-08T04:04:34;102121.94;;;0.23;100.00
77725;BME280;66892;53.236;6.550;2024-03-08T04:07:00;102115.03;;;0.23;100.00
77725;BME280;66892;53.236;6.550;2024-03-08T04:09:28;102114.13;;;0.23;100.00
77725;BME280;66892;53.236;6.550;2024-03-08T04:11:54;102112.19;;;0.19;100.00
77725;BME280;66892;53.236;6.550;2024-03-08T04:14:23;102103.75;;;0.08;100.00
77725;BME280;66892;53.236;6.550;2024-03-08T04:16:49;102103.44;;;0.04;100.00
77725;BME280;66892;53.236;6.550;2024-03-08T04:19:16;102107.78;;;0.03;100.00
77725;BME280;66892;53.236;6.550;2024-03-08T04:21:42;102092.25;;;0.05;100.00
77725;BME280;66892;53.236;6.550;2024-03-08T04:24:08;102108.75;;;0.05;100.00
77725;BME280;66892;53.236;6.550;2024-03-08T04:26:35;102098.44;;;0.07;100.00
77725;BME280;66892;53.236;6.550;2024-03-08T04:29:01;102092.25;;;0.05;100.00
77725;BME280;66892;53.236;6.550;2024-03-08T04:31:27;102085.19;;;0.02;100.00
77725;BME280;66892;53.236;6.550;2024-03-08T04:33:53;102091.47;;;0.06;100.00
77725;BME280;66892;53.236;6.550;2024-03-08T04:36:20;102086.16;;;0.04;100.00
77725;BME280;66892;53.236;6.550;2024-03-08T04:38:46;102095.56;;;0.02;100.00
77725;BME280;66892;53.236;6.550;2024-03-08T04:41:12;102097.22;;;0.00;100.00
77725;BME280;66892;53.236;6.550;2024-03-08T04:43:38;102090.94;;;-0.04;100.00
77725;BME280;66892;53.236;6.550;2024-03-08T04:46:05;102092.69;;;-0.03;100.00
77725;BME280;66892;53.236;6.550;2024-03-08T04:48:31;102089.56;;;-0.12;100.00
77725;BME280;66892;53.236;6.550;2024-03-08T04:50:57;102081.69;;;-0.13;100.00
77725;BME280;66892;53.236;6.550;2024-03-08T04:53:25;102066.88;;;-0.14;100.00
77725;BME280;66892;53.236;6.550;2024-03-08T04:55:51;102064.34;;;-0.13;100.00
77725;BME280;66892;53.236;6.550;2024-03-08T04:58:17;102067.97;;;-0.11;100.00
77725;BME280;66892;53.236;6.550;2024-03-08T05:00:43;102061.59;;;-0.16;100.00
77725;BME280;66892;53.236;6.550;2024-03-08T05:03:09;102065.63;;;-0.21;100.00
77725;BME280;66892;53.236;6.550;2024-03-08T05:05:35;102065.19;;;-0.14;100.00
77725;BME280;66892;53.236;6.550;2024-03-08T05:08:02;102056.72;;;-0.10;100.00
77725;BME280;66892;53.236;6.550;2024-03-08T05:10:30;102057.47;;;-0.12;100.00
77725;BME280;66892;53.236;6.550;2024-03-08T05:12:56;102055.59;;;-0.15;100.00
77725;BME280;66892;53.236;6.550;2024-03-08T05:15:22;102051.00;;;-0.19;100.00
77725;BME280;66892;53.236;6.550;2024-03-08T05:17:48;102056.03;;;-0.22;100.00
77725;BME280;66892;53.236;6.550;2024-03-08T05:20:14;102055.66;;;-0.28;100.00
77725;BME280;66892;53.236;6.550;2024-03-08T05:22:40;102062.56;;;-0.28;100.00
77725;BME280;66892;53.236;6.550;2024-03-08T05:25:07;102058.63;;;-0.22;100.00
77725;BME280;66892;53.236;6.550;2024-03-08T05:27:37;102050.03;;;-0.21;100.00
77725;BME280;66892;53.236;6.550;2024-03-08T05:30:05;102052.44;;;-0.24;100.00
77725;BME280;66892;53.236;6.550;2024-03-08T05:32:31;102051.09;;;-0.32;100.00
77725;BME280;66892;53.236;6.550;2024-03-08T05:34:57;102039.16;;;-0.28;100.00
77725;BME280;66892;53.236;6.550;2024-03-08T05:37:23;102047.16;;;-0.25;100.00
77725;BME280;66892;53.236;6.550;2024-03-08T05:39:49;102056.47;;;-0.29;100.00
77725;BME280;66892;53.236;6.550;2024-03-08T05:42:15;102045.44;;;-0.25;100.00
77725;BME280;66892;53.236;6.550;2024-03-08T05:44:43;102058.97;;;-0.30;100.00
77725;BME280;66892;53.236;6.550;2024-03-08T05:47:09;102053.06;;;-0.28;100.00
77725;BME280;66892;53.236;6.550;2024-03-08T05:49:36;102052.63;;;-0.21;100.00
77725;BME280;66892;53.236;6.550;2024-03-08T05:52:03;102056.75;;;-0.24;100.00
77725;BME280;66892;53.236;6.550;2024-03-08T05:54:30;102052.09;;;-0.30;100.00
77725;BME280;66892;53.236;6.550;2024-03-08T05:56:58;102058.00;;;-0.32;100.00
77725;BME280;66892;53.236;6.550;2024-03-08T05:59:25;102057.09;;;-0.33;100.00
77725;BME280;66892;53.236;6.550;2024-03-08T06:01:52;102065.41;;;-0.38;100.00
77725;BME280;66892;53.236;6.550;2024-03-08T06:04:18;102065.41;;;-0.53;100.00
77725;BME280;66892;53.236;6.550;2024-03-08T06:06:44;102059.66;;;-0.47;100.00
77725;BME280;66892;53.236;6.550;2024-03-08T06:09:10;102054.59;;;-0.46;100.00
77725;BME280;66892;53.236;6.550;2024-03-08T06:11:43;102055.56;;;-0.44;100.00
77725;BME280;66892;53.236;6.550;2024-03-08T06:14:09;102049.56;;;-0.43;100.00
77725;BME280;66892;53.236;6.550;2024-03-08T06:16:35;102049.47;;;-0.44;100.00
77725;BME280;66892;53.236;6.550;2024-03-08T06:19:03;102053.13;;;-0.41;100.00
77725;BME280;66892;53.236;6.550;2024-03-08T06:21:29;102053.25;;;-0.39;100.00
77725;BME280;66892;53.236;6.550;2024-03-08T06:23:55;102051.88;;;-0.47;100.00
77725;BME280;66892;53.236;6.550;2024-03-08T06:26:23;102053.75;;;-0.45;100.00
77725;BME280;66892;53.236;6.550;2024-03-08T06:28:50;102054.66;;;-0.44;100.00
77725;BME280;66892;53.236;6.550;2024-03-08T06:31:16;102055.66;;;-0.42;100.00
77725;BME280;66892;53.236;6.550;2024-03-08T06:33:42;102051.63;;;-0.37;100.00
77725;BME280;66892;53.236;6.550;2024-03-08T06:36:10;102048.31;;;-0.35;100.00
77725;BME280;66892;53.236;6.550;2024-03-08T06:38:37;102052.00;;;-0.31;100.00
77725;BME280;66892;53.236;6.550;2024-03-08T06:41:08;102046.16;;;-0.27;100.00
77725;BME280;66892;53.236;6.550;2024-03-08T06:43:34;102053.16;;;-0.26;100.00
77725;BME280;66892;53.236;6.550;2024-03-08T06:46:00;102046.34;;;-0.24;100.00
77725;BME280;66892;53.236;6.550;2024-03-08T06:48:26;102054.44;;;-0.20;100.00
77725;BME280;66892;53.236;6.550;2024-03-08T06:50:52;102046.53;;;-0.21;100.00
77725;BME280;66892;53.236;6.550;2024-03-08T06:53:20;102050.31;;;-0.16;100.00
77725;BME280;66892;53.236;6.550;2024-03-08T06:55:46;102047.72;;;-0.16;100.00
77725;BME280;66892;53.236;6.550;2024-03-08T06:58:12;102051.47;;;-0.11;100.00
77725;BME280;66892;53.236;6.550;2024-03-08T07:00:38;102046.44;;;-0.08;100.00
77725;BME280;66892;53.236;6.550;2024-03-08T07:03:07;102040.44;;;-0.07;100.00
77725;BME280;66892;53.236;6.550;2024-03-08T07:05:33;102048.59;;;-0.01;100.00
77725;BME280;66892;53.236;6.550;2024-03-08T07:08:00;102048.16;;;0.06;100.00
77725;BME280;66892;53.236;6.550;2024-03-08T07:10:28;102048.50;;;0.12;100.00
77725;BME280;66892;53.236;6.550;2024-03-08T07:12:54;102043.47;;;0.15;100.00
77725;BME280;66892;53.236;6.550;2024-03-08T07:15:21;102046.25;;;0.18;100.00
77725;BME280;66892;53.236;6.550;2024-03-08T07:17:49;102042.19;;;0.23;100.00
77725;BME280;66892;53.236;6.550;2024-03-08T07:20:15;102038.97;;;0.27;100.00
77725;BME280;66892;53.236;6.550;2024-03-08T07:22:44;102043.44;;;0.30;100.00
77725;BME280;66892;53.236;6.550;2024-03-08T07:25:13;102049.72;;;0.33;100.00
77725;BME280;66892;53.236;6.550;2024-03-08T07:27:49;102050.91;;;0.38;100.00
77725;BME280;66892;53.236;6.550;2024-03-08T07:30:15;102042.44;;;0.42;100.00
77725;BME280;66892;53.236;6.550;2024-03-08T07:32:59;102042.06;;;0.51;100.00
77725;BME280;66892;53.236;6.550;2024-03-08T07:35:28;102028.41;;;0.55;100.00
77725;BME280;66892;53.236;6.550;2024-03-08T07:37:54;102031.16;;;0.58;100.00
77725;BME280;66892;53.236;6.550;2024-03-08T07:40:25;102026.22;;;0.63;100.00
77725;BME280;66892;53.236;6.550;2024-03-08T07:42:53;102032.66;;;0.69;100.00
77725;BME280;66892;53.236;6.550;2024-03-08T07:45:19;102036.56;;;0.77;100.00
77725;BME280;66892;53.236;6.550;2024-03-08T07:47:45;102025.78;;;0.86;100.00
77725;BME280;66892;53.236;6.550;2024-03-08T07:50:11;102031.06;;;0.87;100.00
77725;BME280;66892;53.236;6.550;2024-03-08T07:52:42;102023.56;;;0.93;100.00
77725;BME280;66892;53.236;6.550;2024-03-08T07:55:08;102026.44;;;0.98;100.00
77725;BME280;66892;53.236;6.550;2024-03-08T07:57:35;102016.94;;;0.98;100.00
77725;BME280;66892;53.236;6.550;2024-03-08T08:00:06;102016.28;;;1.02;100.00
77725;BME280;66892;53.236;6.550;2024-03-08T08:02:36;102009.50;;;1.06;100.00
77725;BME280;66892;53.236;6.550;2024-03-08T08:05:03;102005.28;;;1.08;100.00
77725;BME280;66892;53.236;6.550;2024-03-08T08:07:29;102009.69;;;1.09;100.00
77725;BME280;66892;53.236;6.550;2024-03-08T08:09:56;102001.47;;;1.18;100.00
77725;BME280;66892;53.236;6.550;2024-03-08T08:12:22;102007.16;;;1.27;100.00
77725;BME280;66892;53.236;6.550;2024-03-08T08:14:48;102004.53;;;1.27;100.00
77725;BME280;66892;53.236;6.550;2024-03-08T08:17:15;102005.00;;;1.36;100.00
77725;BME280;66892;53.236;6.550;2024-03-08T08:19:41;102003.78;;;1.45;100.00
77725;BME280;66892;53.236;6.550;2024-03-08T08:22:07;101986.75;;;1.52;100.00
77725;BME280;66892;53.236;6.550;2024-03-08T08:24:34;102001.00;;;1.58;100.00
77725;BME280;66892;53.236;6.550;2024-03-08T08:27:02;101989.81;;;1.61;100.00
77725;BME280;66892;53.236;6.550;2024-03-08T08:29:28;101991.72;;;1.64;100.00
77725;BME280;66892;53.236;6.550;2024-03-08T08:31:57;101979.78;;;1.69;100.00
77725;BME280;66892;53.236;6.550;2024-03-08T08:34:26;101970.56;;;1.75;100.00
77725;BME280;66892;53.236;6.550;2024-03-08T08:36:52;101972.56;;;1.81;100.00
77725;BME280;66892;53.236;6.550;2024-03-08T08:39:18;101962.38;;;1.85;100.00
77725;BME280;66892;53.236;6.550;2024-03-08T08:41:45;101967.00;;;1.91;100.00
77725;BME280;66892;53.236;6.550;2024-03-08T08:44:11;101971.69;;;1.98;100.00
77725;BME280;66892;53.236;6.550;2024-03-08T08:46:38;101965.69;;;1.99;100.00
77725;BME280;66892;53.236;6.550;2024-03-08T08:49:04;101948.28;;;1.99;100.00
77725;BME280;66892;53.236;6.550;2024-03-08T08:51:33;101961.47;;;2.02;100.00
77725;BME280;66892;53.236;6.550;2024-03-08T08:53:59;101944.25;;;2.06;100.00
77725;BME280;66892;53.236;6.550;2024-03-08T08:56:26;101941.88;;;2.10;100.00
77725;BME280;66892;53.236;6.550;2024-03-08T08:58:52;101927.88;;;2.82;100.00
77725;BME280;66892;53.236;6.550;2024-03-08T09:01:19;101935.41;;;4.40;97.81
77725;BME280;66892;53.236;6.550;2024-03-08T09:03:45;101915.72;;;6.23;88.10
77725;BME280;66892;53.236;6.550;2024-03-08T09:06:15;101916.06;;;7.56;78.02
77725;BME280;66892;53.236;6.550;2024-03-08T09:08:44;101912.72;;;7.97;73.12
77725;BME280;66892;53.236;6.550;2024-03-08T09:11:10;101911.91;;;8.36;71.32
77725;BME280;66892;53.236;6.550;2024-03-08T09:13:36;101917.78;;;8.26;69.09
77725;BME280;66892;53.236;6.550;2024-03-08T09:16:05;101920.34;;;7.87;70.88
77725;BME280;66892;53.236;6.550;2024-03-08T09:18:32;101928.91;;;8.13;70.98
77725;BME280;66892;53.236;6.550;2024-03-08T09:20:59;101900.53;;;8.01;69.72
77725;BME280;66892;53.236;6.550;2024-03-08T09:23:25;101897.28;;;8.13;69.19
77725;BME280;66892;53.236;6.550;2024-03-08T09:25:57;101900.22;;;8.64;68.02
77725;BME280;66892;53.236;6.550;2024-03-08T09:28:23;101900.91;;;8.95;65.58
77725;BME280;66892;53.236;6.550;2024-03-08T09:30:49;101893.97;;;8.57;66.65
77725;BME280;66892;53.236;6.550;2024-03-08T09:33:15;101888.28;;;8.81;65.32
77725;BME280;66892;53.236;6.550;2024-03-08T09:35:45;101885.28;;;9.06;63.25
77725;BME280;66892;53.236;6.550;2024-03-08T09:38:12;101877.19;;;8.97;63.36
77725;BME280;66892;53.236;6.550;2024-03-08T09:40:41;101882.16;;;8.82;63.19
77725;BME280;66892;53.236;6.550;2024-03-08T09:43:08;101874.56;;;8.55;64.20
77725;BME280;66892;53.236;6.550;2024-03-08T09:45:36;101872.63;;;8.88;62.94
77725;BME280;66892;53.236;6.550;2024-03-08T09:48:06;101875.28;;;8.48;63.56
77725;BME280;66892;53.236;6.550;2024-03-08T09:50:34;101870.72;;;8.81;63.35
77725;BME280;66892;53.236;6.550;2024-03-08T09:53:00;101865.91;;;9.04;63.16
77725;BME280;66892;53.236;6.550;2024-03-08T09:55:27;101866.84;;;9.08;62.52
77725;BME280;66892;53.236;6.550;2024-03-08T09:57:58;101848.78;;;8.84;63.57
77725;BME280;66892;53.236;6.550;2024-03-08T10:00:44;101836.72;;;8.95;62.57
77725;BME280;66892;53.236;6.550;2024-03-08T10:03:10;101838.56;;;9.00;63.99
77725;BME280;66892;53.236;6.550;2024-03-08T10:05:37;101827.13;;;9.00;61.03
77725;BME280;66892;53.236;6.550;2024-03-08T10:08:03;101830.84;;;9.11;61.56
77725;BME280;66892;53.236;6.550;2024-03-08T10:10:30;101825.19;;;9.39;60.33
77725;BME280;66892;53.236;6.550;2024-03-08T10:12:58;101825.81;;;9.76;59.95
77725;BME280;66892;53.236;6.550;2024-03-08T10:15:26;101819.50;;;9.68;58.30
77725;BME280;66892;53.236;6.550;2024-03-08T10:17:55;101822.72;;;9.00;60.52
77725;BME280;66892;53.236;6.550;2024-03-08T10:20:21;101826.69;;;7.25;66.80
77725;BME280;66892;53.236;6.550;2024-03-08T10:22:49;101823.78;;;6.22;71.72
77725;BME280;66892;53.236;6.550;2024-03-08T10:25:17;101819.09;;;6.12;74.88
77725;BME280;66892;53.236;6.550;2024-03-08T10:27:43;101810.28;;;6.40;73.60
77725;BME280;66892;53.236;6.550;2024-03-08T10:30:12;101811.88;;;7.28;71.91
77725;BME280;66892;53.236;6.550;2024-03-08T10:32:40;101799.91;;;8.17;67.97
77725;BME280;66892;53.236;6.550;2024-03-08T10:35:08;101795.88;;;8.75;66.65
77725;BME280;66892;53.236;6.550;2024-03-08T10:37:40;101791.81;;;8.92;64.17
77725;BME280;66892;53.236;6.550;2024-03-08T10:40:16;101786.28;;;8.80;64.00
77725;BME280;66892;53.236;6.550;2024-03-08T10:42:52;101787.50;;;8.97;64.42
77725;BME280;66892;53.236;6.550;2024-03-08T10:45:29;101789.44;;;9.09;63.91
77725;BME280;66892;53.236;6.550;2024-03-08T10:48:04;101781.69;;;9.16;63.47
77725;BME280;66892;53.236;6.550;2024-03-08T10:50:36;101787.09;;;9.25;62.93
77725;BME280;66892;53.236;6.550;2024-03-08T10:53:05;101762.47;;;9.23;63.70
77725;BME280;66892;53.236;6.550;2024-03-08T10:55:33;101764.84;;;9.08;63.52
77725;BME280;66892;53.236;6.550;2024-03-08T10:57:59;101773.81;;;9.19;63.15
77725;BME280;66892;53.236;6.550;2024-03-08T11:00:26;101778.94;;;9.10;63.99
77725;BME280;66892;53.236;6.550;2024-03-08T11:02:53;101775.03;;;8.90;64.92
77725;BME280;66892;53.236;6.550;2024-03-08T11:05:31;101772.88;;;9.16;65.46
77725;BME280;66892;53.236;6.550;2024-03-08T11:08:03;101754.50;;;8.72;64.92
77725;BME280;66892;53.236;6.550;2024-03-08T11:10:30;101759.78;;;8.72;65.31
77725;BME280;66892;53.236;6.550;2024-03-08T11:12:56;101752.25;;;8.92;65.33
77725;BME280;66892;53.236;6.550;2024-03-08T11:15:24;101746.13;;;8.94;67.02
77725;BME280;66892;53.236;6.550;2024-03-08T11:17:50;101743.59;;;9.00;65.08
77725;BME280;66892;53.236;6.550;2024-03-08T11:20:18;101745.50;;;8.61;65.99
77725;BME280;66892;53.236;6.550;2024-03-08T11:22:53;101740.31;;;8.66;65.49
77725;BME280;66892;53.236;6.550;2024-03-08T11:25:44;101732.19;;;8.55;66.60
77725;BME280;66892;53.236;6.550;2024-03-08T11:28:14;101726.16;;;8.19;70.16
77725;BME280;66892;53.236;6.550;2024-03-08T11:30:45;101724.19;;;8.07;69.05
77725;BME280;66892;53.236;6.550;2024-03-08T11:33:13;101713.56;;;8.03;71.07
77725;BME280;66892;53.236;6.550;2024-03-08T11:35:39;101724.47;;;7.80;71.11
77725;BME280;66892;53.236;6.550;2024-03-08T11:38:07;101726.00;;;7.69;72.24
77725;BME280;66892;53.236;6.550;2024-03-08T11:40:34;101714.75;;;7.39;73.31
77725;BME280;66892;53.236;6.550;2024-03-08T11:43:02;101716.00;;;7.17;74.51
77725;BME280;66892;53.236;6.550;2024-03-08T11:45:33;101724.34;;;7.01;75.70
77725;BME280;66892;53.236;6.550;2024-03-08T11:48:02;101718.72;;;6.87;77.07
77725;BME280;66892;53.236;6.550;2024-03-08T11:50:29;101720.31;;;6.81;77.94
77725;BME280;66892;53.236;6.550;2024-03-08T11:53:00;101712.34;;;6.78;78.51
77725;BME280;66892;53.236;6.550;2024-03-08T11:55:27;101713.31;;;6.81;80.16
77725;BME280;66892;53.236;6.550;2024-03-08T11:58:00;101715.13;;;6.82;79.18
77725;BME280;66892;53.236;6.550;2024-03-08T12:00:27;101714.81;;;6.72;77.98
77725;BME280;66892;53.236;6.550;2024-03-08T12:03:01;101710.09;;;6.59;78.60
77725;BME280;66892;53.236;6.550;2024-03-08T12:05:28;101699.59;;;6.59;80.31
77725;BME280;66892;53.236;6.550;2024-03-08T12:07:56;101692.00;;;6.69;81.04
77725;BME280;66892;53.236;6.550;2024-03-08T12:10:23;101683.38;;;6.75;79.79
77725;BME280;66892;53.236;6.550;2024-03-08T12:12:51;101686.94;;;6.77;79.19
77725;BME280;66892;53.236;6.550;2024-03-08T12:15:19;101683.44;;;6.78;80.05
77725;BME280;66892;53.236;6.550;2024-03-08T12:17:48;101686.00;;;6.75;81.22
77725;BME280;66892;53.236;6.550;2024-03-08T12:20:15;101680.56;;;6.67;80.04
77725;BME280;66892;53.236;6.550;2024-03-08T12:22:42;101679.66;;;6.67;80.44
77725;BME280;66892;53.236;6.550;2024-03-08T12:25:10;101673.66;;;6.71;80.27
77725;BME280;66892;53.236;6.550;2024-03-08T12:27:37;101669.38;;;6.76;81.91
77725;BME280;66892;53.236;6.550;2024-03-08T12:30:16;101656.31;;;6.79;80.53
77725;BME280;66892;53.236;6.550;2024-03-08T12:32:48;101658.06;;;6.78;80.20
77725;BME280;66892;53.236;6.550;2024-03-08T12:35:14;101648.50;;;6.82;81.27
77725;BME280;66892;53.236;6.550;2024-03-08T12:37:41;101643.53;;;6.94;80.88
77725;BME280;66892;53.236;6.550;2024-03-08T12:40:08;101632.50;;;7.09;79.91
77725;BME280;66892;53.236;6.550;2024-03-08T12:42:35;101623.78;;;7.11;80.51
77725;BME280;66892;53.236;6.550;2024-03-08T12:45:01;101633.69;;;7.23;79.53
77725;BME280;66892;53.236;6.550;2024-03-08T12:47:28;101616.16;;;7.22;78.93
77725;BME280;66892;53.236;6.550;2024-03-08T12:49:56;101613.47;;;7.20;80.10
77725;BME280;66892;53.236;6.550;2024-03-08T12:52:22;101608.22;;;7.20;80.48